This is the latest recevied weather packets stored in our database for station/object OK1ALX-6. If no packets are shown the sender has not sent any weather packets the latest 10 day(s).
| Time | Temp. | Humidity | Pressure | Rain* | Wind** | Luminosity | Snow |
|---|---|---|---|---|---|---|---|
| 1777788003 | 15.56° C | 51% | 1023.1 hPa | 0 mm | - | 173 W/m² | - |
| 1777787403 | 15.56° C | 52% | 1023.1 hPa | 0 mm | - | 157 W/m² | - |
| 1777786803 | 14.44° C | 54% | 1023.3 hPa | 0 mm | - | 144 W/m² | - |
| 1777786203 | 13.89° C | 56% | 1023.2 hPa | 0 mm | - | 114 W/m² | - |
| 1777785603 | 13.89° C | 55% | 1023.2 hPa | 0 mm | - | 71 W/m² | - |
| 1777785003 | 12.22° C | 64% | 1023.7 hPa | 0 mm | - | 61 W/m² | - |
| 1777784403 | 13.33° C | 55% | 1023.4 hPa | 0 mm | - | 53 W/m² | - |
| 1777783803 | 12.78° C | 55% | 1023.2 hPa | 0 mm | - | 43 W/m² | - |
| 1777783203 | 12.22° C | 56% | 1023.4 hPa | 0 mm | - | 39 W/m² | - |
| 1777782603 | 11.67° C | 57% | 1023.4 hPa | 0 mm | - | 34 W/m² | - |
| 1777782003 | 11.11° C | 60% | 1023.8 hPa | 0 mm | - | 29 W/m² | - |
| 1777781403 | 10° C | 61% | 1023.5 hPa | 0 mm | - | 21 W/m² | - |
| 1777780803 | 9.44° C | 65% | 1023.8 hPa | 0 mm | - | 15 W/m² | - |
| 1777780203 | 9.44° C | 66% | 1023.7 hPa | 0 mm | - | 9 W/m² | - |
| 1777779603 | 10° C | 63% | 1023.6 hPa | 0 mm | - | 4 W/m² | - |
| 1777779003 | 10° C | 62% | 1023.7 hPa | 0 mm | - | 0 W/m² | - |
| 1777778403 | 10.56° C | 61% | 1023.3 hPa | 0 mm | - | 0 W/m² | - |
| 1777777803 | 10° C | 62% | 1023.4 hPa | 0 mm | - | 0 W/m² | - |
| 1777777203 | 10.56° C | 59% | 1023.5 hPa | 0 mm | - | 0 W/m² | - |
| 1777776603 | 10.56° C | 60% | 1023.5 hPa | 0 mm | - | 0 W/m² | - |
| 1777776003 | 10° C | 62% | 1023.5 hPa | 0 mm | - | 0 W/m² | - |
| 1777775403 | 10° C | 62% | 1023.6 hPa | 0 mm | - | 0 W/m² | - |
| 1777774803 | 10° C | 62% | 1023.6 hPa | 0 mm | - | 0 W/m² | - |
| 1777774203 | 10° C | 61% | 1023.7 hPa | 0 mm | - | 0 W/m² | - |
| 1777773603 | 10.56° C | 60% | 1023.7 hPa | 0 mm | - | 0 W/m² | - |
* Rain latest hour (hover to see other rain measurements)
** Current wind speed in m/s (hover to see current wind gust speed)